D/T METAR WX W/DIR W/SPE G/SPE TEMP DEWP
9/04/20 00:50 EGOS 082350Z AUTO 33003KT 9999 NCD 08/04 Q1024 NNW (330°) 3.5mph 8°C 4°C
8/04/20 23:50 EGOS 082250Z AUTO 33003KT 9999 NCD 09/05 Q1025 NNW (330°) 3.5mph 9°C 5°C
8/04/20 22:50 EGOS 082150Z AUTO 32003KT 9999 FEW070/// 10/06 Q1025 NW (320°) 3.5mph 10°C 6°C
8/04/20 21:50 EGOS 082050Z AUTO 33008KT 9999 BKN070/// 12/07 Q1024 NNW (330°) 9.2mph 12°C 7°C
8/04/20 20:50 EGOS 081950Z AUTO 33008KT 9999 BKN060/// 13/08 Q1024 NNW (330°) 9.2mph 13°C 8°C
8/04/20 19:50 EGOS 081850Z AUTO 34011KT 9999 FEW060/// 14/07 Q1023 NNW (340°) 12.7mph 14°C 7°C
8/04/20 18:50 EGOS 081750Z AUTO 26001KT 9999 NCD 19/07 Q1023 W (260°) 1.2mph 19°C 7°C
8/04/20 17:50 EGOS 081650Z AUTO 33002KT 9999 NCD 20/08 Q1023 RERA NNW (330°) 2.3mph 20°C 8°C
8/04/20 16:50 EGOS 081550Z 29003KT 9999 FEW045 20/08 Q1023 NOSIG RMK BLU BLU WNW (290°) 3.5mph 20°C 8°C
8/04/20 16:20 EGOS 081520Z 36002KT 9999 FEW045 20/08 Q1023 NOSIG RMK BLU BLU N (360°) 2.3mph 20°C 8°C
8/04/20 15:50 EGOS 081450Z 17004KT 9999 FEW048 19/07 Q1023 NOSIG RMK BLU BLU S (170°) 4.6mph 19°C 7°C
8/04/20 14:50 EGOS 081350Z 23002KT 9999 FEW045 18/07 Q1024 NOSIG RMK BLU BLU SW (230°) 2.3mph 18°C 7°C
8/04/20 14:20 EGOS 081320Z 22003KT 9999 FEW045 19/07 Q1024 NOSIG RMK BLU BLU SW (220°) 3.5mph 19°C 7°C
8/04/20 13:50 EGOS 081250Z 21003KT 9999 FEW045 19/07 Q1024 NOSIG RMK BLU BLU SSW (210°) 3.5mph 19°C 7°C
8/04/20 13:20 EGOS 081220Z 17003KT 9999 FEW045 SCT095 18/06 Q1024 NOSIG RMK BLU BLU S (170°) 3.5mph 18°C 6°C
8/04/20 12:50 EGOS 081150Z 19005KT 9999 FEW045 SCT090 17/06 Q1025 NOSIG RMK BLU BLU S (190°) 5.8mph 17°C 6°C
8/04/20 11:50 EGOS 081050Z 13003KT 9999 FEW045 SCT080 17/06 Q1025 NOSIG RMK BLU BLU SE (130°) 3.5mph 17°C 6°C
8/04/20 11:21 EGOS 081021Z 21002KT 9999 FEW040 SCT080 17/06 Q1025 NOSIG RMK BLU BLU SSW (210°) 2.3mph 17°C 6°C
8/04/20 10:50 EGOS 080950Z 22001KT 9999 FEW040 BKN080 16/06 Q1025 NOSIG RMK BLU BLU SW (220°) 1.2mph 16°C 6°C
8/04/20 10:20 EGOS 080920Z 15002KT CAVOK 15/06 Q1025 NOSIG RMK BLU BLU SSE (150°) 2.3mph 15°C 6°C
8/04/20 09:50 EGOS 080850Z 07001KT CAVOK 15/07 Q1025 NOSIG RMK BLU BLU ENE (70°) 1.2mph 15°C 7°C
8/04/20 09:20 EGOS 080820Z 16001KT CAVOK 14/07 Q1025 NOSIG RMK BLU BLU SSE (160°) 1.2mph 14°C 7°C
8/04/20 08:50 EGOS 080750Z AUTO 24001KT 9999 FEW080/// 11/07 Q1025 RERA WSW (240°) 1.2mph 11°C 7°C
8/04/20 07:50 EGOS 080650Z AUTO 10002KT 9999 BKN041/// 10/07 Q1025 E (100°) 2.3mph 10°C 7°C
8/04/20 06:50 EGOS 080550Z AUTO 07002KT 9999 OVC048/// 09/06 Q1025 ENE (70°) 2.3mph 9°C 6°C
8/04/20 05:50 EGOS 080450Z AUTO 28002KT 9999 BKN050/// 07/05 Q1025 W (280°) 2.3mph 7°C 5°C
8/04/20 04:50 EGOS 080350Z AUTO 23003KT 9999 OVC060/// 08/06 Q1025 SW (230°) 3.5mph 8°C 6°C
8/04/20 03:50 EGOS 080250Z AUTO 15002KT 9999 OVC050/// 09/06 Q1026 SSE (150°) 2.3mph 9°C 6°C
8/04/20 02:50 EGOS 080150Z AUTO 34001KT 9999 OVC050/// 09/06 Q1026 NNW (340°) 1.2mph 9°C 6°C
8/04/20 01:50 EGOS 080050Z AUTO 25001KT 9999 OVC060/// 09/06 Q1026 WSW (250°) 1.2mph 9°C 6°C
8/04/20 00:50 EGOS 072350Z AUTO 01001KT 9999 SCT060/// BKN140/// 07/04 Q1026 N (10°) 1.2mph 7°C 4°C
7/04/20 23:50 EGOS 072250Z AUTO 04001KT 9999 FEW230/// 08/05 Q1026 NE (40°) 1.2mph 8°C 5°C
7/04/20 22:50 EGOS 072150Z AUTO 20002KT 9999 FEW140/// 08/05 Q1026 SSW (200°) 2.3mph 8°C 5°C
7/04/20 21:50 EGOS 072050Z AUTO 34001KT 9999 FEW050/// 09/04 Q1026 NNW (340°) 1.2mph 9°C 4°C
7/04/20 20:50 EGOS 071950Z AUTO 00000KT 9999 FEW210/// 10/03 Q1026 N (0°) 10°C 3°C
7/04/20 19:50 EGOS 071850Z AUTO 16005KT 9999 NCD 15/04 Q1026 SSE (160°) 5.8mph 15°C 4°C
7/04/20 18:50 EGOS 071750Z AUTO 18006KT 9999 NCD 15/04 Q1026 S (180°) 6.9mph 15°C 4°C
7/04/20 17:50 EGOS 071650Z AUTO 20009KT 9999 FEW050/// 16/03 Q1026 SSW (200°) 10.4mph 16°C 3°C
7/04/20 16:50 EGOS 071550Z 17009KT CAVOK 17/04 Q1027 NOSIG RMK BLU BLU S (170°) 10.4mph 17°C 4°C
7/04/20 16:21 EGOS 071521Z 18011KT CAVOK 16/04 Q1027 NOSIG RMK BLU BLU S (180°) 12.7mph 16°C 4°C
7/04/20 15:50 EGOS 071450Z 18009KT CAVOK 16/04 Q1027 NOSIG RMK BLU BLU S (180°) 10.4mph 16°C 4°C
7/04/20 15:20 EGOS 071420Z 16012KT 9999 FEW046 BKN250 16/04 Q1028 NOSIG RMK BLU BLU SSE (160°) 13.8mph 16°C 4°C
7/04/20 14:50 EGOS 071350Z 18013KT 9999 FEW046 BKN250 15/04 Q1028 NOSIG RMK BLU BLU S (180°) 15.0mph 15°C 4°C
7/04/20 14:20 EGOS 071320Z 17013KT 9999 FEW046 BKN250 15/04 Q1028 NOSIG RMK BLU BLU S (170°) 15.0mph 15°C 4°C
7/04/20 13:50 EGOS 071250Z 18012KT 9999 FEW044 BKN250 15/05 Q1028 NOSIG RMK BLU BLU S (180°) 13.8mph 15°C 5°C
7/04/20 13:20 EGOS 071220Z 16011KT 9999 FEW044 BKN250 15/04 Q1028 NOSIG RMK BLU BLU SSE (160°) 12.7mph 15°C 4°C
7/04/20 12:50 EGOS 071150Z 17008KT 9999 FEW040 SCT250 14/04 Q1028 NOSIG RMK BLU BLU S (170°) 9.2mph 14°C 4°C
7/04/20 11:50 EGOS 071050Z 16009KT 9999 FEW035 13/03 Q1029 NOSIG RMK BLU BLU SSE (160°) 10.4mph 13°C 3°C